createdAt,value
2022-10-18T00:02:41.213Z,18.50
2022-10-18T00:05:42.967Z,22.50
2022-10-18T00:08:44.708Z,16.15
2022-10-18T00:11:46.289Z,22.13
2022-10-18T00:14:51.184Z,20.27
2022-10-18T00:17:52.875Z,20.55
2022-10-18T00:21:04.301Z,14.55
2022-10-18T00:24:06.571Z,16.85
2022-10-18T00:27:08.266Z,17.53
2022-10-18T00:30:10.259Z,22.45
2022-10-18T00:33:13.076Z,19.90
2022-10-18T00:36:14.806Z,17.33
2022-10-18T00:39:19.072Z,13.88
2022-10-18T00:42:24.371Z,18.00
2022-10-18T00:45:27.107Z,20.52
2022-10-18T00:48:28.868Z,17.00
2022-10-18T00:51:41.976Z,16.38
2022-10-18T00:54:46.322Z,21.58
2022-10-18T00:57:49.124Z,15.77
2022-10-18T01:00:51.029Z,15.75
2022-10-18T01:03:54.118Z,17.88
2022-10-18T01:10:14.956Z,16.70
2022-10-18T01:13:41.123Z,16.77
2022-10-18T01:16:59.047Z,16.40
2022-10-18T01:20:09.887Z,22.35
2022-10-18T01:23:39.643Z,14.82
2022-10-18T01:27:22.380Z,19.55
2022-10-18T01:30:51.509Z,17.05
2022-10-18T01:34:06.488Z,18.95
2022-10-18T01:37:11.360Z,16.83
2022-10-18T01:40:17.397Z,18.70
2022-10-18T01:43:21.556Z,22.17
2022-10-18T01:46:25.687Z,16.83
2022-10-18T01:49:27.590Z,18.80
2022-10-18T01:52:31.465Z,16.70
2022-10-18T01:55:54.782Z,14.15
2022-10-18T01:59:02.297Z,15.43
2022-10-18T02:02:28.746Z,15.77
2022-10-18T02:05:49.468Z,21.20
2022-10-18T02:09:00.948Z,20.40
2022-10-18T02:12:03.749Z,15.18
2022-10-18T02:15:07.850Z,15.77
2022-10-18T02:18:15.662Z,14.10
2022-10-18T02:21:21.437Z,15.40
2022-10-18T02:24:25.866Z,19.85
2022-10-18T02:27:27.735Z,19.75
2022-10-18T02:31:07.709Z,16.33
2022-10-18T02:34:35.849Z,19.48
2022-10-18T02:37:39.927Z,17.63
2022-10-18T02:40:41.641Z,14.93
2022-10-18T02:43:43.413Z,17.23
2022-10-18T02:46:45.722Z,13.68
2022-10-18T02:49:47.531Z,14.32
2022-10-18T02:52:49.198Z,14.77
2022-10-18T02:55:50.994Z,18.23
2022-10-18T02:58:52.623Z,13.68
2022-10-18T03:01:54.450Z,14.15
2022-10-18T03:04:56.150Z,15.85
2022-10-18T03:07:58.232Z,15.18
2022-10-18T03:10:59.926Z,18.27
2022-10-18T03:14:01.698Z,14.75
2022-10-18T03:17:03.517Z,15.10
2022-10-18T03:20:05.933Z,15.75
2022-10-18T03:23:07.681Z,12.18
2022-10-18T03:26:09.967Z,14.95
2022-10-18T03:29:12.117Z,16.50
2022-10-18T03:32:13.967Z,14.52
2022-10-18T03:35:15.951Z,13.13
2022-10-18T03:38:20.818Z,15.13
2022-10-18T03:41:22.537Z,14.43
2022-10-18T03:44:24.252Z,15.23
2022-10-18T03:47:26.114Z,17.15
2022-10-18T03:50:27.875Z,19.90
2022-10-18T03:53:29.651Z,16.08
2022-10-18T03:56:31.447Z,16.85
2022-10-18T03:59:33.161Z,15.00
2022-10-18T04:02:35.041Z,16.17
2022-10-18T04:05:36.991Z,15.70
2022-10-18T04:08:38.967Z,16.08
2022-10-18T04:11:40.822Z,13.75
2022-10-18T04:14:42.530Z,14.88
2022-10-18T04:17:44.343Z,15.68
2022-10-18T04:20:46.104Z,14.73
2022-10-18T04:23:48.935Z,16.13
2022-10-18T04:26:51.476Z,15.05
2022-10-18T04:29:53.252Z,14.88
2022-10-18T04:32:55.010Z,15.45
2022-10-18T04:35:59.131Z,12.43
2022-10-18T04:39:00.958Z,16.17
2022-10-18T04:42:05.609Z,19.65
2022-10-18T04:45:07.850Z,14.52
2022-10-18T04:48:09.653Z,14.10
2022-10-18T04:51:11.296Z,12.80
2022-10-18T04:54:13.055Z,13.05
2022-10-18T04:57:14.855Z,14.30
2022-10-18T05:00:16.720Z,11.65
2022-10-18T05:03:18.842Z,14.43
2022-10-18T05:06:21.457Z,13.13
2022-10-18T05:09:24.841Z,11.38
2022-10-18T05:12:26.531Z,10.85
2022-10-18T05:15:28.358Z,9.90
2022-10-18T05:18:30.252Z,14.32
2022-10-18T05:21:32.313Z,11.48
2022-10-18T05:24:34.088Z,14.23
2022-10-18T05:27:36.187Z,15.07
2022-10-18T05:30:39.255Z,14.23
2022-10-18T05:36:43.029Z,13.70
2022-10-18T05:39:47.183Z,15.23
2022-10-18T05:42:52.070Z,12.88
2022-10-18T05:45:53.938Z,12.07
2022-10-18T05:48:55.646Z,13.48
2022-10-18T05:51:57.360Z,11.85
2022-10-18T05:55:01.601Z,12.82
2022-10-18T05:58:04.148Z,14.73
2022-10-18T06:01:06.851Z,14.75
2022-10-18T06:04:11.140Z,16.08
2022-10-18T06:07:15.913Z,18.77
2022-10-18T06:10:17.818Z,16.17
2022-10-18T06:13:19.538Z,16.83
2022-10-18T06:16:22.650Z,16.65
2022-10-18T06:22:25.948Z,16.95
2022-10-18T06:25:27.658Z,15.18
2022-10-18T06:28:30.264Z,13.80
2022-10-18T06:31:31.989Z,15.73
2022-10-18T06:34:34.346Z,19.35
2022-10-18T06:37:36.926Z,17.80
2022-10-18T06:40:38.552Z,16.15
2022-10-18T06:43:40.395Z,15.18
2022-10-18T06:46:42.287Z,14.90
2022-10-18T06:49:44.132Z,16.25
2022-10-18T06:52:48.142Z,15.40
2022-10-18T06:55:49.986Z,15.65
2022-10-18T06:58:51.717Z,13.60
2022-10-18T07:01:53.517Z,15.60
2022-10-18T07:04:55.410Z,12.25
2022-10-18T07:07:57.369Z,12.93
2022-10-18T07:10:59.809Z,12.13
2022-10-18T07:14:03.335Z,10.02
2022-10-18T07:17:05.172Z,10.15
2022-10-18T07:20:07.568Z,11.25
2022-10-18T07:23:11.562Z,9.55
2022-10-18T07:26:17.843Z,8.50
2022-10-18T07:29:19.637Z,12.88
2022-10-18T07:32:23.629Z,9.90
2022-10-18T07:35:25.491Z,12.10
2022-10-18T07:38:29.783Z,12.73
2022-10-18T07:41:33.820Z,14.18
2022-10-18T07:44:35.736Z,12.68
2022-10-18T07:47:37.627Z,12.30
2022-10-18T07:50:41.062Z,15.13
2022-10-18T07:53:42.770Z,14.25
2022-10-18T07:56:44.550Z,12.90
2022-10-18T07:59:50.216Z,13.13
2022-10-18T08:02:56.870Z,10.18
2022-10-18T08:05:58.735Z,13.70
2022-10-18T08:09:00.444Z,13.52
2022-10-18T08:12:02.369Z,15.10
2022-10-18T08:15:04.642Z,10.77
2022-10-18T08:18:06.207Z,9.55
2022-10-18T08:21:10.514Z,6.55
2022-10-18T08:24:12.142Z,9.40
2022-10-18T08:27:13.723Z,11.90
2022-10-18T08:30:17.578Z,8.05
2022-10-18T08:33:19.148Z,6.65
2022-10-18T08:36:20.824Z,5.22
2022-10-18T08:39:22.430Z,3.65
2022-10-18T08:43:05.827Z,5.38
2022-10-18T08:46:12.418Z,2.95
2022-10-18T08:49:47.254Z,3.63
2022-10-18T08:52:54.882Z,3.67
2022-10-18T08:56:15.884Z,2.70
2022-10-18T08:59:24.656Z,1.70
2022-10-18T09:02:44.134Z,1.40
2022-10-18T09:05:53.223Z,3.60
2022-10-18T09:09:14.780Z,1.67
2022-10-18T09:12:44.214Z,3.05
2022-10-18T09:15:54.824Z,3.00
2022-10-18T09:19:11.611Z,4.38
2022-10-18T09:22:16.325Z,2.53
2022-10-18T09:25:40.867Z,2.55
2022-10-18T09:29:10.050Z,4.15
2022-10-18T09:32:17.926Z,6.15
2022-10-18T09:35:31.712Z,13.70
2022-10-18T09:38:41.774Z,7.10
2022-10-18T09:42:26.674Z,3.30
2022-10-18T09:45:37.834Z,3.35
2022-10-18T09:48:48.746Z,4.70
2022-10-18T09:51:52.519Z,10.30
2022-10-18T09:54:57.238Z,8.63
2022-10-18T09:58:01.948Z,5.32
2022-10-18T10:01:03.618Z,8.90
2022-10-18T10:04:05.172Z,5.97
2022-10-18T10:07:16.223Z,9.98
2022-10-18T10:10:29.333Z,5.85
2022-10-18T10:16:32.831Z,7.30
2022-10-18T10:19:56.541Z,6.88
2022-10-18T10:23:07.345Z,7.15
2022-10-18T10:26:30.441Z,6.45
2022-10-18T10:29:49.028Z,6.05
2022-10-18T10:32:54.494Z,4.82
2022-10-18T10:36:00.820Z,2.80
2022-10-18T10:39:18.602Z,4.13
2022-10-18T10:42:20.317Z,3.22
2022-10-18T10:45:23.712Z,5.10
2022-10-18T10:48:33.406Z,6.22
2022-10-18T10:51:41.309Z,5.72
2022-10-18T10:54:48.989Z,6.70
2022-10-18T10:57:56.120Z,5.68
2022-10-18T11:00:58.033Z,6.63
2022-10-18T11:04:03.461Z,4.82
2022-10-18T11:07:27.799Z,2.42
2022-10-18T11:10:33.555Z,4.45
2022-10-18T11:14:20.992Z,1.65
2022-10-18T11:17:42.353Z,3.85
2022-10-18T11:21:05.842Z,3.95
2022-10-18T11:24:15.322Z,3.22
2022-10-18T11:27:38.117Z,2.38
2022-10-18T11:30:51.584Z,2.78
2022-10-18T11:34:25.270Z,3.38
2022-10-18T11:37:38.752Z,2.97
2022-10-18T11:41:04.850Z,2.72
2022-10-18T11:44:28.344Z,5.03
2022-10-18T11:47:32.806Z,5.25
2022-10-18T11:50:53.099Z,8.93
2022-10-18T11:54:01.396Z,5.18
2022-10-18T11:57:36.319Z,3.42
2022-10-18T12:00:44.799Z,4.18
2022-10-18T12:04:17.429Z,4.25
2022-10-18T12:07:27.762Z,4.67
2022-10-18T12:10:52.770Z,2.38
2022-10-18T12:14:02.256Z,3.95
2022-10-18T12:17:40.868Z,5.20
2022-10-18T12:20:39.924Z,5.35
2022-10-18T12:23:59.538Z,9.60
2022-10-18T12:27:02.274Z,3.38
2022-10-18T12:33:27.673Z,4.38
2022-10-18T12:36:49.465Z,2.07
2022-10-18T12:40:09.716Z,3.72
2022-10-18T12:43:21.178Z,2.45
2022-10-18T12:46:22.987Z,1.63
2022-10-18T12:49:31.534Z,3.35
2022-10-18T12:52:37.053Z,4.63
2022-10-18T12:55:40.747Z,2.08
2022-10-18T12:58:42.537Z,2.63
2022-10-18T13:01:50.377Z,3.92
2022-10-18T13:04:52.164Z,1.90
2022-10-18T13:08:21.066Z,3.88
2022-10-18T13:11:35.760Z,2.10
2022-10-18T13:15:12.634Z,2.33
2022-10-18T13:18:21.608Z,1.83
2022-10-18T13:21:30.079Z,1.80
2022-10-18T13:24:42.450Z,1.73
2022-10-18T13:27:59.432Z,3.05
2022-10-18T13:31:18.475Z,2.47
2022-10-18T13:34:38.036Z,4.72
2022-10-18T13:37:39.711Z,2.15
2022-10-18T13:40:41.362Z,3.47
2022-10-18T13:44:13.697Z,3.50
2022-10-18T13:47:32.769Z,3.25
2022-10-18T13:50:38.160Z,2.50
2022-10-18T13:53:39.680Z,3.95
2022-10-18T13:57:15.388Z,6.75
2022-10-18T14:00:48.347Z,6.57
2022-10-18T14:04:15.617Z,5.88
2022-10-18T14:07:19.170Z,6.25
2022-10-18T14:10:43.906Z,3.72
2022-10-18T14:14:12.675Z,6.30
2022-10-18T14:17:42.815Z,2.88
2022-10-18T14:21:12.460Z,4.80
2022-10-18T14:24:21.544Z,5.68
2022-10-18T14:27:29.158Z,3.95
2022-10-18T14:30:30.937Z,3.45
2022-10-18T14:33:38.160Z,4.78
2022-10-18T14:36:41.347Z,5.10
2022-10-18T14:39:43.090Z,5.22
2022-10-18T14:42:48.539Z,3.83
2022-10-18T14:45:51.257Z,3.10
2022-10-18T14:51:57.491Z,3.97
2022-10-18T14:55:00.110Z,3.25
2022-10-18T14:58:02.762Z,2.67
2022-10-18T15:01:04.965Z,2.58
2022-10-18T15:04:11.744Z,3.35
2022-10-18T15:07:16.393Z,2.85
2022-10-18T15:10:21.298Z,4.45
2022-10-18T15:13:25.024Z,4.80
2022-10-18T15:16:29.622Z,3.30
2022-10-18T15:19:42.814Z,4.18
2022-10-18T15:22:46.677Z,5.82
2022-10-18T15:25:48.668Z,3.63
2022-10-18T15:28:53.299Z,2.87
2022-10-18T15:31:55.298Z,4.97
2022-10-18T15:35:16.088Z,8.73
2022-10-18T15:38:20.593Z,4.05
2022-10-18T15:41:48.868Z,3.00
2022-10-18T15:44:51.519Z,5.10
2022-10-18T15:48:09.364Z,4.10
2022-10-18T15:51:48.084Z,4.07
2022-10-18T15:54:49.669Z,5.93
2022-10-18T15:57:51.396Z,6.57
2022-10-18T16:00:57.729Z,9.23
2022-10-18T16:04:00.865Z,5.10
2022-10-18T16:07:02.451Z,6.82
2022-10-18T16:10:13.312Z,7.50
2022-10-18T16:13:15.050Z,6.00
2022-10-18T16:16:25.733Z,6.38
2022-10-18T16:19:27.403Z,5.32
2022-10-18T16:22:31.123Z,6.93
2022-10-18T16:25:35.026Z,5.55
2022-10-18T16:28:36.725Z,9.60
2022-10-18T16:31:38.486Z,8.00
2022-10-18T16:34:40.354Z,10.35
2022-10-18T16:37:44.604Z,5.80
2022-10-18T16:40:46.476Z,6.47
2022-10-18T16:43:49.715Z,7.18
2022-10-18T16:46:53.928Z,6.70
2022-10-18T16:49:57.223Z,8.80
2022-10-18T16:52:58.891Z,10.52
2022-10-18T16:56:02.453Z,11.77
2022-10-18T16:59:04.327Z,10.88
2022-10-18T17:02:09.335Z,10.57
2022-10-18T17:05:15.646Z,9.40
2022-10-18T17:08:26.973Z,9.40
2022-10-18T17:11:29.262Z,11.35
2022-10-18T17:14:34.773Z,12.10
2022-10-18T17:17:38.168Z,10.57
2022-10-18T17:20:41.486Z,11.48
2022-10-18T17:23:43.971Z,9.75
2022-10-18T17:26:45.656Z,10.82
2022-10-18T17:29:47.406Z,8.30
2022-10-18T17:32:49.859Z,10.30
2022-10-18T17:35:53.834Z,12.13
2022-10-18T17:38:56.260Z,15.00
2022-10-18T17:41:58.097Z,18.60
2022-10-18T17:44:59.833Z,15.75
2022-10-18T17:48:01.514Z,20.83
2022-10-18T17:51:16.632Z,12.23
2022-10-18T17:54:18.296Z,14.60
2022-10-18T17:57:20.161Z,13.63
2022-10-18T18:00:24.461Z,12.18
2022-10-18T18:03:26.115Z,11.80
2022-10-18T18:06:31.359Z,13.80
2022-10-18T18:09:33.154Z,16.30
2022-10-18T18:12:35.011Z,15.75
2022-10-18T18:15:36.818Z,13.75
2022-10-18T18:18:38.460Z,12.55
2022-10-18T18:21:40.949Z,12.15
2022-10-18T18:24:42.738Z,16.13
2022-10-18T18:27:44.333Z,12.10
2022-10-18T18:30:45.968Z,13.75
2022-10-18T18:33:47.502Z,22.02
2022-10-18T18:36:49.358Z,13.90
2022-10-18T18:39:50.930Z,13.48
2022-10-18T18:43:07.049Z,15.52
2022-10-18T18:46:17.078Z,11.38
2022-10-18T18:49:19.261Z,11.63
2022-10-18T18:52:21.796Z,13.83
2022-10-18T18:55:25.448Z,14.90
2022-10-18T18:58:27.536Z,12.93
2022-10-18T19:01:35.075Z,14.57
2022-10-18T19:04:37.016Z,16.15
2022-10-18T19:07:38.645Z,13.35
2022-10-18T19:10:40.280Z,14.40
2022-10-18T19:13:42.616Z,16.83
2022-10-18T19:16:51.375Z,12.97
2022-10-18T19:19:54.094Z,20.42
2022-10-18T19:22:55.698Z,19.20
2022-10-18T19:26:10.207Z,17.52
2022-10-18T19:29:13.543Z,18.88
2022-10-18T19:32:16.959Z,18.33
2022-10-18T19:35:18.594Z,22.58
2022-10-18T19:38:20.301Z,17.65
2022-10-18T19:44:32.378Z,20.02
2022-10-18T19:47:34.025Z,26.75
2022-10-18T19:50:35.586Z,50.42
2022-10-18T19:53:38.337Z,23.30
2022-10-18T19:56:41.700Z,17.95
2022-10-18T19:59:43.563Z,29.75
2022-10-18T20:02:45.476Z,25.10
2022-10-18T20:05:47.292Z,31.40
2022-10-18T20:08:50.548Z,29.13
2022-10-18T20:14:53.886Z,43.53
2022-10-18T20:17:56.447Z,38.38
2022-10-18T20:20:58.086Z,32.17
2022-10-18T20:23:59.792Z,49.30
2022-10-18T20:27:03.309Z,20.45
2022-10-18T20:30:08.970Z,27.70
2022-10-18T20:33:13.114Z,20.73
2022-10-18T20:36:17.268Z,33.10
2022-10-18T20:39:18.916Z,31.50
2022-10-18T20:42:20.522Z,34.72
2022-10-18T20:45:22.103Z,30.52
2022-10-18T20:48:24.303Z,27.60
2022-10-18T20:51:26.098Z,31.30
2022-10-18T20:54:27.873Z,28.58
2022-10-18T20:57:32.934Z,25.20
2022-10-18T21:00:38.052Z,37.83
2022-10-18T21:03:41.624Z,33.15
2022-10-18T21:06:43.902Z,30.85
2022-10-18T21:09:45.470Z,39.47
2022-10-18T21:12:48.099Z,15.73
2022-10-18T21:15:59.991Z,59.25
2022-10-18T21:19:06.214Z,30.65
2022-10-18T21:22:07.836Z,29.67
2022-10-18T21:25:10.331Z,40.17
2022-10-18T21:28:12.004Z,23.73
2022-10-18T21:31:17.308Z,42.85
2022-10-18T21:34:18.930Z,41.97
2022-10-18T21:37:20.752Z,25.70
2022-10-18T21:40:22.289Z,37.75
2022-10-18T21:43:23.923Z,25.95
2022-10-18T21:46:28.497Z,44.00
2022-10-18T21:49:35.057Z,22.75
2022-10-18T21:52:36.659Z,45.58
2022-10-18T21:55:38.310Z,20.05
2022-10-18T21:58:40.843Z,43.60
2022-10-18T22:01:44.190Z,40.00
2022-10-18T22:04:46.905Z,35.08
2022-10-18T22:07:48.527Z,35.13
2022-10-18T22:10:50.141Z,50.80
2022-10-18T22:13:53.774Z,48.72
2022-10-18T22:16:55.436Z,43.38
2022-10-18T22:19:56.969Z,20.75
2022-10-18T22:22:58.524Z,55.38
2022-10-18T22:26:09.297Z,50.97
2022-10-18T22:29:19.324Z,35.25
2022-10-18T22:32:20.909Z,70.28
2022-10-18T22:35:22.559Z,34.78
2022-10-18T22:38:24.672Z,30.77
2022-10-18T22:41:26.436Z,32.65
2022-10-18T22:44:28.101Z,32.88
2022-10-18T22:47:29.822Z,26.85
2022-10-18T22:50:31.503Z,28.50
2022-10-18T22:53:34.123Z,36.17
2022-10-18T22:56:35.971Z,33.53
2022-10-18T22:59:37.532Z,27.90
2022-10-18T23:02:39.103Z,76.93
2022-10-18T23:05:41.793Z,19.38
2022-10-18T23:08:43.465Z,61.35
2022-10-18T23:11:47.523Z,42.60
2022-10-18T23:14:49.169Z,20.52
2022-10-18T23:17:54.495Z,31.00
2022-10-18T23:21:24.277Z,89.28
2022-10-18T23:24:25.977Z,35.35
2022-10-18T23:27:28.740Z,36.78
2022-10-18T23:30:30.609Z,23.58
2022-10-18T23:33:32.173Z,25.05
2022-10-18T23:36:34.439Z,42.53
2022-10-18T23:39:36.065Z,54.40
2022-10-18T23:42:37.615Z,36.30
2022-10-18T23:45:40.884Z,29.05
2022-10-18T23:51:44.525Z,89.47
2022-10-18T23:54:46.323Z,45.13
2022-10-18T23:57:47.924Z,66.43
